sensor_id;sensor_type;location;lat;lon;timestamp;temperature;humidity
68026;SHT31;54819;48.030;14.710;2023-04-24T00:01:05;10.72;81.50
68026;SHT31;54819;48.030;14.710;2023-04-24T00:03:34;10.75;81.52
68026;SHT31;54819;48.030;14.710;2023-04-24T00:06:01;10.79;81.59
68026;SHT31;54819;48.030;14.710;2023-04-24T00:08:29;10.84;81.49
68026;SHT31;54819;48.030;14.710;2023-04-24T00:10:56;10.89;81.40
68026;SHT31;54819;48.030;14.710;2023-04-24T00:13:23;10.94;81.46
68026;SHT31;54819;48.030;14.710;2023-04-24T00:15:50;11.00;81.35
68026;SHT31;54819;48.030;14.710;2023-04-24T00:18:17;11.03;81.24
68026;SHT31;54819;48.030;14.710;2023-04-24T00:20:44;11.06;81.36
68026;SHT31;54819;48.030;14.710;2023-04-24T00:23:11;11.11;81.53
68026;SHT31;54819;48.030;14.710;2023-04-24T00:25:37;11.21;81.84
68026;SHT31;54819;48.030;14.710;2023-04-24T00:28:05;11.39;81.59
68026;SHT31;54819;48.030;14.710;2023-04-24T00:30:32;11.56;81.24
68026;SHT31;54819;48.030;14.710;2023-04-24T00:32:58;11.72;80.99
68026;SHT31;54819;48.030;14.710;2023-04-24T00:35:25;11.83;80.75
68026;SHT31;54819;48.030;14.710;2023-04-24T00:37:52;11.90;80.85
68026;SHT31;54819;48.030;14.710;2023-04-24T00:40:19;11.99;80.74
68026;SHT31;54819;48.030;14.710;2023-04-24T00:42:45;12.10;80.72
68026;SHT31;54819;48.030;14.710;2023-04-24T00:45:12;12.18;80.77
68026;SHT31;54819;48.030;14.710;2023-04-24T00:47:39;12.26;80.55
68026;SHT31;54819;48.030;14.710;2023-04-24T00:50:08;12.30;80.55
68026;SHT31;54819;48.030;14.710;2023-04-24T00:52:35;12.35;80.43
68026;SHT31;54819;48.030;14.710;2023-04-24T00:55:03;12.37;80.42
68026;SHT31;54819;48.030;14.710;2023-04-24T00:57:31;12.40;80.49
68026;SHT31;54819;48.030;14.710;2023-04-24T00:59:59;12.44;80.50
68026;SHT31;54819;48.030;14.710;2023-04-24T01:02:25;12.48;80.34
68026;SHT31;54819;48.030;14.710;2023-04-24T01:04:53;12.52;80.36
68026;SHT31;54819;48.030;14.710;2023-04-24T01:07:20;12.56;80.35
68026;SHT31;54819;48.030;14.710;2023-04-24T01:09:50;12.59;80.33
68026;SHT31;54819;48.030;14.710;2023-04-24T01:12:18;12.61;80.39
68026;SHT31;54819;48.030;14.710;2023-04-24T01:14:46;12.62;80.24
68026;SHT31;54819;48.030;14.710;2023-04-24T01:17:14;12.62;80.11
68026;SHT31;54819;48.030;14.710;2023-04-24T01:19:41;12.64;80.08
68026;SHT31;54819;48.030;14.710;2023-04-24T01:22:12;12.65;80.36
68026;SHT31;54819;48.030;14.710;2023-04-24T01:24:41;12.65;80.32
68026;SHT31;54819;48.030;14.710;2023-04-24T01:27:11;12.66;80.22
68026;SHT31;54819;48.030;14.710;2023-04-24T01:29:38;12.63;80.09
68026;SHT31;54819;48.030;14.710;2023-04-24T01:32:08;12.63;80.05
68026;SHT31;54819;48.030;14.710;2023-04-24T01:34:35;12.61;79.94
68026;SHT31;54819;48.030;14.710;2023-04-24T01:37:04;12.59;79.95
68026;SHT31;54819;48.030;14.710;2023-04-24T01:39:31;12.58;80.03
68026;SHT31;54819;48.030;14.710;2023-04-24T01:41:59;12.57;80.14
68026;SHT31;54819;48.030;14.710;2023-04-24T01:44:28;12.57;80.19
68026;SHT31;54819;48.030;14.710;2023-04-24T01:46:55;12.56;80.20
68026;SHT31;54819;48.030;14.710;2023-04-24T01:49:22;12.55;79.98
68026;SHT31;54819;48.030;14.710;2023-04-24T01:51:49;12.53;79.96
68026;SHT31;54819;48.030;14.710;2023-04-24T01:54:16;12.53;79.68
68026;SHT31;54819;48.030;14.710;2023-04-24T01:56:43;12.52;79.70
68026;SHT31;54819;48.030;14.710;2023-04-24T01:59:10;12.53;79.72
68026;SHT31;54819;48.030;14.710;2023-04-24T02:01:38;12.53;79.77
68026;SHT31;54819;48.030;14.710;2023-04-24T02:04:06;12.52;79.81
68026;SHT31;54819;48.030;14.710;2023-04-24T02:06:34;12.51;79.76
68026;SHT31;54819;48.030;14.710;2023-04-24T02:09:01;12.50;79.94
68026;SHT31;54819;48.030;14.710;2023-04-24T02:11:29;12.50;79.59
68026;SHT31;54819;48.030;14.710;2023-04-24T02:13:56;12.49;79.54
68026;SHT31;54819;48.030;14.710;2023-04-24T02:16:23;12.48;79.59
68026;SHT31;54819;48.030;14.710;2023-04-24T02:18:50;12.48;79.61
68026;SHT31;54819;48.030;14.710;2023-04-24T02:21:17;12.47;79.83
68026;SHT31;54819;48.030;14.710;2023-04-24T02:23:43;12.46;79.93
68026;SHT31;54819;48.030;14.710;2023-04-24T02:26:11;12.46;79.97
68026;SHT31;54819;48.030;14.710;2023-04-24T02:28:38;12.46;79.78
68026;SHT31;54819;48.030;14.710;2023-04-24T02:31:05;12.46;79.70
68026;SHT31;54819;48.030;14.710;2023-04-24T02:33:32;12.45;79.70
68026;SHT31;54819;48.030;14.710;2023-04-24T02:35:59;12.43;79.72
68026;SHT31;54819;48.030;14.710;2023-04-24T02:38:26;12.42;79.45
68026;SHT31;54819;48.030;14.710;2023-04-24T02:40:53;12.43;79.90
68026;SHT31;54819;48.030;14.710;2023-04-24T02:43:20;12.40;80.10
68026;SHT31;54819;48.030;14.710;2023-04-24T02:45:47;12.40;80.07
68026;SHT31;54819;48.030;14.710;2023-04-24T02:48:15;12.42;80.10
68026;SHT31;54819;48.030;14.710;2023-04-24T02:50:42;12.41;80.02
68026;SHT31;54819;48.030;14.710;2023-04-24T02:53:08;12.43;79.80
68026;SHT31;54819;48.030;14.710;2023-04-24T02:55:35;12.37;79.90
68026;SHT31;54819;48.030;14.710;2023-04-24T02:58:02;12.36;79.72
68026;SHT31;54819;48.030;14.710;2023-04-24T03:00:29;12.36;79.98
68026;SHT31;54819;48.030;14.710;2023-04-24T03:02:56;12.37;79.95
68026;SHT31;54819;48.030;14.710;2023-04-24T03:05:23;12.38;80.07
68026;SHT31;54819;48.030;14.710;2023-04-24T03:07:50;12.39;80.07
68026;SHT31;54819;48.030;14.710;2023-04-24T03:10:20;12.39;80.05
68026;SHT31;54819;48.030;14.710;2023-04-24T03:12:48;12.39;79.84
68026;SHT31;54819;48.030;14.710;2023-04-24T03:15:17;12.39;79.83
68026;SHT31;54819;48.030;14.710;2023-04-24T03:17:44;12.39;80.03
68026;SHT31;54819;48.030;14.710;2023-04-24T03:20:11;12.37;79.86
68026;SHT31;54819;48.030;14.710;2023-04-24T03:22:38;12.38;79.91
68026;SHT31;54819;48.030;14.710;2023-04-24T03:25:06;12.35;80.38
68026;SHT31;54819;48.030;14.710;2023-04-24T03:27:35;12.36;80.48
68026;SHT31;54819;48.030;14.710;2023-04-24T03:30:14;12.37;80.42
68026;SHT31;54819;48.030;14.710;2023-04-24T03:32:45;12.38;80.37
68026;SHT31;54819;48.030;14.710;2023-04-24T03:35:14;12.39;80.27
68026;SHT31;54819;48.030;14.710;2023-04-24T03:37:40;12.39;80.18
68026;SHT31;54819;48.030;14.710;2023-04-24T03:40:26;12.39;80.53
68026;SHT31;54819;48.030;14.710;2023-04-24T03:42:55;12.40;80.47
68026;SHT31;54819;48.030;14.710;2023-04-24T03:45:22;12.39;80.51
68026;SHT31;54819;48.030;14.710;2023-04-24T03:47:49;12.40;80.66
68026;SHT31;54819;48.030;14.710;2023-04-24T03:50:16;12.42;80.76
68026;SHT31;54819;48.030;14.710;2023-04-24T03:52:43;12.43;80.87
68026;SHT31;54819;48.030;14.710;2023-04-24T03:55:11;12.45;80.88
68026;SHT31;54819;48.030;14.710;2023-04-24T03:57:43;12.44;81.05
68026;SHT31;54819;48.030;14.710;2023-04-24T04:00:16;12.45;80.83
68026;SHT31;54819;48.030;14.710;2023-04-24T04:02:45;12.44;80.73
68026;SHT31;54819;48.030;14.710;2023-04-24T04:05:12;12.43;80.67
68026;SHT31;54819;48.030;14.710;2023-04-24T04:07:40;12.43;80.71
68026;SHT31;54819;48.030;14.710;2023-04-24T04:10:07;12.42;80.67
68026;SHT31;54819;48.030;14.710;2023-04-24T04:12:35;12.44;80.67
68026;SHT31;54819;48.030;14.710;2023-04-24T04:15:02;12.45;80.64
68026;SHT31;54819;48.030;14.710;2023-04-24T04:17:31;12.44;80.54
68026;SHT31;54819;48.030;14.710;2023-04-24T04:19:59;12.46;80.21
68026;SHT31;54819;48.030;14.710;2023-04-24T04:22:26;12.47;80.10
68026;SHT31;54819;48.030;14.710;2023-04-24T04:24:53;12.47;80.03
68026;SHT31;54819;48.030;14.710;2023-04-24T04:27:21;12.46;79.96
68026;SHT31;54819;48.030;14.710;2023-04-24T04:29:54;12.49;79.92
68026;SHT31;54819;48.030;14.710;2023-04-24T04:32:23;12.50;79.98
68026;SHT31;54819;48.030;14.710;2023-04-24T04:34:49;12.51;79.87
68026;SHT31;54819;48.030;14.710;2023-04-24T04:37:20;12.53;79.99
68026;SHT31;54819;48.030;14.710;2023-04-24T04:40:00;12.54;79.91
68026;SHT31;54819;48.030;14.710;2023-04-24T04:42:37;12.55;79.83
68026;SHT31;54819;48.030;14.710;2023-04-24T04:45:07;12.53;79.64
68026;SHT31;54819;48.030;14.710;2023-04-24T04:47:42;12.52;79.55
68026;SHT31;54819;48.030;14.710;2023-04-24T04:50:11;12.52;79.45
68026;SHT31;54819;48.030;14.710;2023-04-24T04:52:38;12.51;79.55
68026;SHT31;54819;48.030;14.710;2023-04-24T04:55:18;12.49;79.41
68026;SHT31;54819;48.030;14.710;2023-04-24T04:58:03;12.49;79.19
68026;SHT31;54819;48.030;14.710;2023-04-24T05:00:30;12.47;78.92
68026;SHT31;54819;48.030;14.710;2023-04-24T05:03:04;12.41;78.89
68026;SHT31;54819;48.030;14.710;2023-04-24T05:05:46;12.38;78.90
68026;SHT31;54819;48.030;14.710;2023-04-24T05:08:13;12.37;78.95
68026;SHT31;54819;48.030;14.710;2023-04-24T05:10:43;12.36;79.25
68026;SHT31;54819;48.030;14.710;2023-04-24T05:13:10;12.34;79.55
68026;SHT31;54819;48.030;14.710;2023-04-24T05:15:39;12.29;80.10
68026;SHT31;54819;48.030;14.710;2023-04-24T05:18:06;12.26;80.13
68026;SHT31;54819;48.030;14.710;2023-04-24T05:20:33;12.20;80.06
68026;SHT31;54819;48.030;14.710;2023-04-24T05:23:00;12.17;80.22
68026;SHT31;54819;48.030;14.710;2023-04-24T05:25:27;12.16;80.46
68026;SHT31;54819;48.030;14.710;2023-04-24T05:27:59;12.13;80.54
68026;SHT31;54819;48.030;14.710;2023-04-24T05:30:26;12.10;80.60
68026;SHT31;54819;48.030;14.710;2023-04-24T05:32:53;12.08;80.87
68026;SHT31;54819;48.030;14.710;2023-04-24T05:35:20;12.08;80.79
68026;SHT31;54819;48.030;14.710;2023-04-24T05:37:46;12.05;80.94
68026;SHT31;54819;48.030;14.710;2023-04-24T05:40:13;11.97;81.28
68026;SHT31;54819;48.030;14.710;2023-04-24T05:42:41;11.96;81.05
68026;SHT31;54819;48.030;14.710;2023-04-24T05:45:08;11.96;81.11
68026;SHT31;54819;48.030;14.710;2023-04-24T05:47:37;11.94;81.49
68026;SHT31;54819;48.030;14.710;2023-04-24T05:50:04;11.93;81.51
68026;SHT31;54819;48.030;14.710;2023-04-24T05:52:32;11.93;81.90
68026;SHT31;54819;48.030;14.710;2023-04-24T05:55:01;11.90;82.11
68026;SHT31;54819;48.030;14.710;2023-04-24T05:57:30;11.91;82.19
68026;SHT31;54819;48.030;14.710;2023-04-24T06:00:00;11.88;82.42
68026;SHT31;54819;48.030;14.710;2023-04-24T06:02:28;11.90;82.18
68026;SHT31;54819;48.030;14.710;2023-04-24T06:04:59;11.90;82.17
68026;SHT31;54819;48.030;14.710;2023-04-24T06:07:26;11.90;82.06
68026;SHT31;54819;48.030;14.710;2023-04-24T06:09:53;11.89;81.98
68026;SHT31;54819;48.030;14.710;2023-04-24T06:12:20;11.92;81.74
68026;SHT31;54819;48.030;14.710;2023-04-24T06:14:59;11.92;81.91
68026;SHT31;54819;48.030;14.710;2023-04-24T06:17:45;11.92;81.71
68026;SHT31;54819;48.030;14.710;2023-04-24T06:20:13;11.92;81.69
68026;SHT31;54819;48.030;14.710;2023-04-24T06:22:40;11.91;81.64
68026;SHT31;54819;48.030;14.710;2023-04-24T06:25:08;11.91;81.58
68026;SHT31;54819;48.030;14.710;2023-04-24T06:27:35;11.89;81.41
68026;SHT31;54819;48.030;14.710;2023-04-24T06:30:02;11.89;81.10
68026;SHT31;54819;48.030;14.710;2023-04-24T06:32:29;11.88;81.02
68026;SHT31;54819;48.030;14.710;2023-04-24T06:34:58;11.88;80.93
68026;SHT31;54819;48.030;14.710;2023-04-24T06:37:25;11.90;80.87
68026;SHT31;54819;48.030;14.710;2023-04-24T06:39:52;11.93;80.91
68026;SHT31;54819;48.030;14.710;2023-04-24T06:42:19;11.95;80.91
68026;SHT31;54819;48.030;14.710;2023-04-24T06:44:48;11.95;80.62
68026;SHT31;54819;48.030;14.710;2023-04-24T06:47:15;11.94;80.42
68026;SHT31;54819;48.030;14.710;2023-04-24T06:49:42;11.93;80.47
68026;SHT31;54819;48.030;14.710;2023-04-24T06:52:09;11.92;80.06
68026;SHT31;54819;48.030;14.710;2023-04-24T06:54:36;11.92;80.06
68026;SHT31;54819;48.030;14.710;2023-04-24T06:57:03;11.93;80.04
68026;SHT31;54819;48.030;14.710;2023-04-24T06:59:29;11.92;79.71
68026;SHT31;54819;48.030;14.710;2023-04-24T07:01:57;11.94;79.91
68026;SHT31;54819;48.030;14.710;2023-04-24T07:04:24;11.95;79.79
68026;SHT31;54819;48.030;14.710;2023-04-24T07:06:52;11.96;79.67
68026;SHT31;54819;48.030;14.710;2023-04-24T07:09:22;11.96;79.16
68026;SHT31;54819;48.030;14.710;2023-04-24T07:11:50;11.99;79.09
68026;SHT31;54819;48.030;14.710;2023-04-24T07:14:18;11.98;79.04
68026;SHT31;54819;48.030;14.710;2023-04-24T07:16:45;11.96;79.35
68026;SHT31;54819;48.030;14.710;2023-04-24T07:19:12;11.97;79.24
68026;SHT31;54819;48.030;14.710;2023-04-24T07:21:40;12.00;79.34
68026;SHT31;54819;48.030;14.710;2023-04-24T07:24:07;12.03;79.52
68026;SHT31;54819;48.030;14.710;2023-04-24T07:26:37;12.08;79.47
68026;SHT31;54819;48.030;14.710;2023-04-24T07:29:06;12.13;79.09
68026;SHT31;54819;48.030;14.710;2023-04-24T07:31:34;12.13;78.89
68026;SHT31;54819;48.030;14.710;2023-04-24T07:34:01;12.17;78.77
68026;SHT31;54819;48.030;14.710;2023-04-24T07:36:27;12.23;78.80
68026;SHT31;54819;48.030;14.710;2023-04-24T07:38:54;12.27;78.61
68026;SHT31;54819;48.030;14.710;2023-04-24T07:41:23;12.32;78.40
68026;SHT31;54819;48.030;14.710;2023-04-24T07:43:50;12.34;78.25
68026;SHT31;54819;48.030;14.710;2023-04-24T07:46:20;12.41;78.09
68026;SHT31;54819;48.030;14.710;2023-04-24T07:48:47;12.45;78.01
68026;SHT31;54819;48.030;14.710;2023-04-24T07:51:27;12.45;77.60
68026;SHT31;54819;48.030;14.710;2023-04-24T07:53:54;12.48;77.61
68026;SHT31;54819;48.030;14.710;2023-04-24T07:56:23;12.54;77.36
68026;SHT31;54819;48.030;14.710;2023-04-24T07:58:53;12.59;77.34
68026;SHT31;54819;48.030;14.710;2023-04-24T08:01:20;12.66;77.24
68026;SHT31;54819;48.030;14.710;2023-04-24T08:03:46;12.73;77.27
68026;SHT31;54819;48.030;14.710;2023-04-24T08:06:14;12.82;77.42
68026;SHT31;54819;48.030;14.710;2023-04-24T08:08:40;12.83;76.80
68026;SHT31;54819;48.030;14.710;2023-04-24T08:11:07;12.83;75.93
68026;SHT31;54819;48.030;14.710;2023-04-24T08:13:34;12.87;76.17
68026;SHT31;54819;48.030;14.710;2023-04-24T08:16:01;12.92;76.18
68026;SHT31;54819;48.030;14.710;2023-04-24T08:18:28;12.95;76.36
68026;SHT31;54819;48.030;14.710;2023-04-24T08:20:55;12.99;76.11
68026;SHT31;54819;48.030;14.710;2023-04-24T08:23:22;12.99;76.49
68026;SHT31;54819;48.030;14.710;2023-04-24T08:25:49;13.02;76.37
68026;SHT31;54819;48.030;14.710;2023-04-24T08:28:15;13.05;76.59
68026;SHT31;54819;48.030;14.710;2023-04-24T08:30:46;13.03;76.34
68026;SHT31;54819;48.030;14.710;2023-04-24T08:33:14;13.01;76.23
68026;SHT31;54819;48.030;14.710;2023-04-24T08:35:41;13.03;76.19
68026;SHT31;54819;48.030;14.710;2023-04-24T08:38:08;13.06;76.12
68026;SHT31;54819;48.030;14.710;2023-04-24T08:40:35;13.12;76.16
68026;SHT31;54819;48.030;14.710;2023-04-24T08:43:03;13.17;76.23
68026;SHT31;54819;48.030;14.710;2023-04-24T08:45:30;13.23;76.40
68026;SHT31;54819;48.030;14.710;2023-04-24T08:47:59;13.28;75.85
68026;SHT31;54819;48.030;14.710;2023-04-24T08:50:26;13.36;76.12
68026;SHT31;54819;48.030;14.710;2023-04-24T08:52:55;13.44;75.98
68026;SHT31;54819;48.030;14.710;2023-04-24T08:55:23;13.50;76.12
68026;SHT31;54819;48.030;14.710;2023-04-24T08:57:51;13.53;75.88
68026;SHT31;54819;48.030;14.710;2023-04-24T09:00:20;13.59;76.04
68026;SHT31;54819;48.030;14.710;2023-04-24T09:02:51;13.65;75.73
68026;SHT31;54819;48.030;14.710;2023-04-24T09:05:21;13.67;75.72
68026;SHT31;54819;48.030;14.710;2023-04-24T09:07:54;13.74;75.51
68026;SHT31;54819;48.030;14.710;2023-04-24T09:10:23;13.76;75.26
68026;SHT31;54819;48.030;14.710;2023-04-24T09:12:52;13.80;75.13
68026;SHT31;54819;48.030;14.710;2023-04-24T09:15:22;13.91;75.12
68026;SHT31;54819;48.030;14.710;2023-04-24T09:17:50;13.99;74.96
68026;SHT31;54819;48.030;14.710;2023-04-24T09:20:17;14.08;75.27
68026;SHT31;54819;48.030;14.710;2023-04-24T09:22:44;14.23;74.94
68026;SHT31;54819;48.030;14.710;2023-04-24T09:25:11;14.29;74.49
68026;SHT31;54819;48.030;14.710;2023-04-24T09:27:43;14.37;74.63
68026;SHT31;54819;48.030;14.710;2023-04-24T09:30:12;14.39;74.13
68026;SHT31;54819;48.030;14.710;2023-04-24T09:32:40;14.34;73.79
68026;SHT31;54819;48.030;14.710;2023-04-24T09:35:09;14.29;73.97
68026;SHT31;54819;48.030;14.710;2023-04-24T09:37:40;14.27;74.28
68026;SHT31;54819;48.030;14.710;2023-04-24T09:40:11;14.27;74.41
68026;SHT31;54819;48.030;14.710;2023-04-24T09:42:54;14.28;74.50
68026;SHT31;54819;48.030;14.710;2023-04-24T09:45:42;14.29;73.89
68026;SHT31;54819;48.030;14.710;2023-04-24T09:48:09;14.26;73.99
68026;SHT31;54819;48.030;14.710;2023-04-24T09:50:37;14.30;73.91
68026;SHT31;54819;48.030;14.710;2023-04-24T09:53:05;14.40;73.97
68026;SHT31;54819;48.030;14.710;2023-04-24T09:55:41;14.50;74.09
68026;SHT31;54819;48.030;14.710;2023-04-24T09:58:16;14.55;73.20
68026;SHT31;54819;48.030;14.710;2023-04-24T10:00:43;14.57;73.13
68026;SHT31;54819;48.030;14.710;2023-04-24T10:03:12;14.65;73.33
68026;SHT31;54819;48.030;14.710;2023-04-24T10:05:39;14.74;73.03
68026;SHT31;54819;48.030;14.710;2023-04-24T10:08:07;14.81;72.11
68026;SHT31;54819;48.030;14.710;2023-04-24T10:10:40;14.90;72.16
68026;SHT31;54819;48.030;14.710;2023-04-24T10:13:09;15.01;72.00
68026;SHT31;54819;48.030;14.710;2023-04-24T10:15:38;15.18;71.63
68026;SHT31;54819;48.030;14.710;2023-04-24T10:18:07;15.28;71.55
68026;SHT31;54819;48.030;14.710;2023-04-24T10:20:37;15.43;70.91
68026;SHT31;54819;48.030;14.710;2023-04-24T10:23:06;15.61;71.50
68026;SHT31;54819;48.030;14.710;2023-04-24T10:25:34;15.76;71.08
68026;SHT31;54819;48.030;14.710;2023-04-24T10:28:03;15.94;70.76
68026;SHT31;54819;48.030;14.710;2023-04-24T10:30:34;16.04;69.96
68026;SHT31;54819;48.030;14.710;2023-04-24T10:33:05;16.14;69.56
68026;SHT31;54819;48.030;14.710;2023-04-24T10:35:36;16.35;69.06
68026;SHT31;54819;48.030;14.710;2023-04-24T10:38:12;16.53;69.23
68026;SHT31;54819;48.030;14.710;2023-04-24T10:40:42;16.63;68.04
68026;SHT31;54819;48.030;14.710;2023-04-24T10:43:09;16.75;66.92
68026;SHT31;54819;48.030;14.710;2023-04-24T10:45:38;16.84;66.65
68026;SHT31;54819;48.030;14.710;2023-04-24T10:48:06;16.99;67.11
68026;SHT31;54819;48.030;14.710;2023-04-24T10:50:44;17.07;66.20
68026;SHT31;54819;48.030;14.710;2023-04-24T10:53:21;17.07;64.77
68026;SHT31;54819;48.030;14.710;2023-04-24T10:56:02;17.19;64.99
68026;SHT31;54819;48.030;14.710;2023-04-24T10:58:49;17.29;64.71
68026;SHT31;54819;48.030;14.710;2023-04-24T11:01:28;17.41;63.99
68026;SHT31;54819;48.030;14.710;2023-04-24T11:04:00;17.52;63.64
68026;SHT31;54819;48.030;14.710;2023-04-24T11:06:34;17.66;62.67
68026;SHT31;54819;48.030;14.710;2023-04-24T11:09:06;17.82;63.67
68026;SHT31;54819;48.030;14.710;2023-04-24T11:11:45;17.76;62.47
68026;SHT31;54819;48.030;14.710;2023-04-24T11:14:16;17.58;62.62
68026;SHT31;54819;48.030;14.710;2023-04-24T11:16:53;17.40;62.38
68026;SHT31;54819;48.030;14.710;2023-04-24T11:19:22;17.17;63.00
68026;SHT31;54819;48.030;14.710;2023-04-24T11:21:55;17.07;62.81
68026;SHT31;54819;48.030;14.710;2023-04-24T11:26:57;17.28;62.86
68026;SHT31;54819;48.030;14.710;2023-04-24T11:29:47;17.52;63.00
68026;SHT31;54819;48.030;14.710;2023-04-24T11:37:48;17.83;62.35
68026;SHT31;54819;48.030;14.710;2023-04-24T11:40:21;17.81;61.66
68026;SHT31;54819;48.030;14.710;2023-04-24T11:42:50;17.69;61.65
68026;SHT31;54819;48.030;14.710;2023-04-24T11:45:22;17.68;62.18
68026;SHT31;54819;48.030;14.710;2023-04-24T11:47:52;17.69;62.41
68026;SHT31;54819;48.030;14.710;2023-04-24T11:50:20;17.56;62.13
68026;SHT31;54819;48.030;14.710;2023-04-24T11:52:52;17.43;62.41
68026;SHT31;54819;48.030;14.710;2023-04-24T11:57:48;17.05;62.63
68026;SHT31;54819;48.030;14.710;2023-04-24T12:00:18;17.07;62.82
68026;SHT31;54819;48.030;14.710;2023-04-24T12:02:48;17.19;63.01
68026;SHT31;54819;48.030;14.710;2023-04-24T12:05:23;17.28;61.93
68026;SHT31;54819;48.030;14.710;2023-04-24T12:07:53;17.27;61.59
68026;SHT31;54819;48.030;14.710;2023-04-24T12:10:21;17.26;61.99
68026;SHT31;54819;48.030;14.710;2023-04-24T12:12:51;17.22;62.12
68026;SHT31;54819;48.030;14.710;2023-04-24T12:15:19;17.02;61.41
68026;SHT31;54819;48.030;14.710;2023-04-24T12:17:47;16.83;61.70
68026;SHT31;54819;48.030;14.710;2023-04-24T12:20:16;16.70;62.64
68026;SHT31;54819;48.030;14.710;2023-04-24T12:25:21;16.62;63.62
68026;SHT31;54819;48.030;14.710;2023-04-24T12:27:55;16.60;63.72
68026;SHT31;54819;48.030;14.710;2023-04-24T12:33:11;16.83;62.71
68026;SHT31;54819;48.030;14.710;2023-04-24T12:35:39;16.90;62.33
68026;SHT31;54819;48.030;14.710;2023-04-24T12:40:41;16.87;62.57
68026;SHT31;54819;48.030;14.710;2023-04-24T12:43:17;16.72;62.01
68026;SHT31;54819;48.030;14.710;2023-04-24T12:45:48;16.56;61.93
68026;SHT31;54819;48.030;14.710;2023-04-24T12:48:15;16.46;62.50
68026;SHT31;54819;48.030;14.710;2023-04-24T12:50:42;16.47;63.07
68026;SHT31;54819;48.030;14.710;2023-04-24T12:53:12;16.39;63.18
68026;SHT31;54819;48.030;14.710;2023-04-24T12:55:41;16.30;62.70
68026;SHT31;54819;48.030;14.710;2023-04-24T12:58:08;15.90;64.27
68026;SHT31;54819;48.030;14.710;2023-04-24T13:00:34;15.02;67.00
68026;SHT31;54819;48.030;14.710;2023-04-24T13:03:02;13.97;69.36
68026;SHT31;54819;48.030;14.710;2023-04-24T13:05:30;13.04;70.89
68026;SHT31;54819;48.030;14.710;2023-04-24T13:07:57;12.61;71.12
68026;SHT31;54819;48.030;14.710;2023-04-24T13:10:24;12.27;72.90
68026;SHT31;54819;48.030;14.710;2023-04-24T13:12:51;12.11;73.87
68026;SHT31;54819;48.030;14.710;2023-04-24T13:15:17;11.97;74.13
68026;SHT31;54819;48.030;14.710;2023-04-24T13:17:44;11.81;75.08
68026;SHT31;54819;48.030;14.710;2023-04-24T13:20:11;11.77;75.17
68026;SHT31;54819;48.030;14.710;2023-04-24T13:22:37;11.77;75.43
68026;SHT31;54819;48.030;14.710;2023-04-24T13:25:04;11.77;75.39
68026;SHT31;54819;48.030;14.710;2023-04-24T13:27:35;11.76;75.34
68026;SHT31;54819;48.030;14.710;2023-04-24T13:30:05;11.79;75.21
68026;SHT31;54819;48.030;14.710;2023-04-24T13:32:33;11.84;76.13
68026;SHT31;54819;48.030;14.710;2023-04-24T13:35:01;11.93;75.66
68026;SHT31;54819;48.030;14.710;2023-04-24T13:37:28;12.07;75.82
68026;SHT31;54819;48.030;14.710;2023-04-24T13:39:55;12.20;75.62
68026;SHT31;54819;48.030;14.710;2023-04-24T13:42:22;12.33;75.43
68026;SHT31;54819;48.030;14.710;2023-04-24T13:44:49;12.44;75.46
68026;SHT31;54819;48.030;14.710;2023-04-24T13:47:17;12.46;75.51
68026;SHT31;54819;48.030;14.710;2023-04-24T13:49:44;12.48;75.47
68026;SHT31;54819;48.030;14.710;2023-04-24T13:52:11;12.49;75.55
68026;SHT31;54819;48.030;14.710;2023-04-24T13:54:37;12.54;75.42
68026;SHT31;54819;48.030;14.710;2023-04-24T13:57:04;12.59;74.81
68026;SHT31;54819;48.030;14.710;2023-04-24T13:59:31;12.69;74.24
68026;SHT31;54819;48.030;14.710;2023-04-24T14:01:57;12.79;73.76
68026;SHT31;54819;48.030;14.710;2023-04-24T14:04:24;12.93;73.94
68026;SHT31;54819;48.030;14.710;2023-04-24T14:06:52;13.02;73.54
68026;SHT31;54819;48.030;14.710;2023-04-24T14:09:18;13.09;73.07
68026;SHT31;54819;48.030;14.710;2023-04-24T14:11:45;13.18;73.11
68026;SHT31;54819;48.030;14.710;2023-04-24T14:14:12;13.24;73.19
68026;SHT31;54819;48.030;14.710;2023-04-24T14:16:38;13.33;72.82
68026;SHT31;54819;48.030;14.710;2023-04-24T14:19:06;13.43;72.79
68026;SHT31;54819;48.030;14.710;2023-04-24T14:21:33;13.52;72.91
68026;SHT31;54819;48.030;14.710;2023-04-24T14:23:59;13.67;73.31
68026;SHT31;54819;48.030;14.710;2023-04-24T14:26:26;13.78;72.87
68026;SHT31;54819;48.030;14.710;2023-04-24T14:28:53;13.99;72.86
68026;SHT31;54819;48.030;14.710;2023-04-24T14:31:36;14.18;72.06
68026;SHT31;54819;48.030;14.710;2023-04-24T14:34:03;14.32;72.31
68026;SHT31;54819;48.030;14.710;2023-04-24T14:36:30;14.38;71.09
68026;SHT31;54819;48.030;14.710;2023-04-24T14:38:57;14.42;71.55
68026;SHT31;54819;48.030;14.710;2023-04-24T14:41:24;14.46;71.98
68026;SHT31;54819;48.030;14.710;2023-04-24T14:43:51;14.51;71.40
68026;SHT31;54819;48.030;14.710;2023-04-24T14:46:18;14.60;71.53
68026;SHT31;54819;48.030;14.710;2023-04-24T14:48:44;14.70;71.72
68026;SHT31;54819;48.030;14.710;2023-04-24T14:51:11;14.73;70.73
68026;SHT31;54819;48.030;14.710;2023-04-24T14:53:38;14.84;71.10
68026;SHT31;54819;48.030;14.710;2023-04-24T14:56:05;14.94;70.68
68026;SHT31;54819;48.030;14.710;2023-04-24T14:58:32;14.89;70.21
68026;SHT31;54819;48.030;14.710;2023-04-24T15:00:59;14.90;70.97
68026;SHT31;54819;48.030;14.710;2023-04-24T15:03:26;14.86;71.07
68026;SHT31;54819;48.030;14.710;2023-04-24T15:05:53;14.74;70.12
68026;SHT31;54819;48.030;14.710;2023-04-24T15:08:20;14.70;70.88
68026;SHT31;54819;48.030;14.710;2023-04-24T15:10:47;14.67;71.23
68026;SHT31;54819;48.030;14.710;2023-04-24T15:13:14;14.63;71.44
68026;SHT31;54819;48.030;14.710;2023-04-24T15:15:41;14.57;71.59
68026;SHT31;54819;48.030;14.710;2023-04-24T15:18:08;14.52;71.59
68026;SHT31;54819;48.030;14.710;2023-04-24T15:20:38;14.47;71.43
68026;SHT31;54819;48.030;14.710;2023-04-24T15:23:05;14.39;71.35
68026;SHT31;54819;48.030;14.710;2023-04-24T15:25:34;14.22;71.41
68026;SHT31;54819;48.030;14.710;2023-04-24T15:28:02;14.13;72.05
68026;SHT31;54819;48.030;14.710;2023-04-24T15:30:31;13.94;72.80
68026;SHT31;54819;48.030;14.710;2023-04-24T15:32:59;13.71;72.88
68026;SHT31;54819;48.030;14.710;2023-04-24T15:35:27;13.51;73.03
68026;SHT31;54819;48.030;14.710;2023-04-24T15:37:54;13.32;73.59
68026;SHT31;54819;48.030;14.710;2023-04-24T15:40:21;13.15;73.68
68026;SHT31;54819;48.030;14.710;2023-04-24T15:42:48;12.97;74.48